CheckWX is a tool to help pilots better visualize weather data.  It is not intended as a substitute for an official pre-flight weather briefing.

01:15:04 UTC

EGWC METAR
DCAE Cosford Airport
Cosford, United Kingdom
Current

9 hours ago

EGWC 231550Z 14004KT 8000 HZ FEW038 14/08 Q1031 BLU
Observed
Feb-23 @ 15:50 UTC
Wind
  • 140° at 4 KTS
Visibility
7,998 meters
Flight Rules
MVFR
Conditions
Haze
Cloud Levels
  • Few at 3,800' AGL
Temperature
14°C / 57°F
Dewpoint
C / 46°F
Humidity
67%
Altimeter
30.44" Hg
Pressure
1030.91 hPa
Previous

10 hours ago

EGWC 231450Z 19008KT 8000 HZ SKC 14/08 Q1031 BLU
Observed
Feb-23 @ 14:50 UTC
Wind
  • 190° at 8 KTS
Visibility
7,998 meters
Flight Rules
MVFR
Conditions
Haze
Cloud Levels
  • Clear skies
Temperature
14°C / 57°F
Dewpoint
C / 46°F
Humidity
67%
Altimeter
30.44" Hg
Pressure
1030.91 hPa
Previous

11 hours ago

EGWC 231350Z 14009KT 8000 HZ SKC 15/10 Q1031 BLU
Observed
Feb-23 @ 13:50 UTC
Wind
  • 140° at 9 KTS
Visibility
7,998 meters
Flight Rules
MVFR
Conditions
Haze
Cloud Levels
  • Clear skies
Temperature
15°C / 59°F
Dewpoint
10°C / 50°F
Humidity
72%
Altimeter
30.44" Hg
Pressure
1030.91 hPa